createdAt,value
2019-05-15T00:02:39.169Z,48.62
2019-05-15T00:07:39.704Z,48.97
2019-05-15T00:12:39.984Z,49.23
2019-05-15T00:17:43.960Z,50.42
2019-05-15T00:22:44.076Z,49.2
2019-05-15T00:27:44.077Z,49.51
2019-05-15T00:32:44.189Z,49.52
2019-05-15T00:37:44.306Z,50.29
2019-05-15T00:42:44.290Z,49.25
2019-05-15T00:47:44.479Z,50.43
2019-05-15T00:52:44.482Z,50.51
2019-05-15T00:57:44.848Z,49.93
2019-05-15T01:02:44.846Z,50.32
2019-05-15T01:07:44.983Z,50.14
2019-05-15T01:12:53.366Z,50.87
2019-05-15T01:17:53.478Z,50.08
2019-05-15T01:22:53.516Z,50.78
2019-05-15T01:27:53.790Z,51.23
2019-05-15T01:32:53.827Z,51.08
2019-05-15T01:37:53.922Z,50.74
2019-05-15T01:42:54.669Z,50.95
2019-05-15T01:47:54.081Z,50.96
2019-05-15T01:52:54.198Z,51.54
2019-05-15T01:57:54.468Z,51.51
2019-05-15T02:02:54.198Z,51.54
2019-05-15T02:08:00.614Z,51.38
2019-05-15T02:13:00.651Z,52.12
2019-05-15T02:18:00.918Z,51.53
2019-05-15T02:23:01.030Z,51.49
2019-05-15T02:28:01.022Z,52.29
2019-05-15T02:33:01.151Z,52.94
2019-05-15T02:38:01.431Z,53.71
2019-05-15T02:43:01.231Z,53.15
2019-05-15T02:48:01.276Z,53.54
2019-05-15T02:53:01.506Z,53.18
2019-05-15T02:58:01.720Z,54.17
2019-05-15T03:03:09.850Z,54.8
2019-05-15T03:08:10.082Z,54.17
2019-05-15T03:13:10.404Z,54.22
2019-05-15T03:18:10.245Z,55.66
2019-05-15T03:23:10.342Z,56.1
2019-05-15T03:28:11.207Z,56.38
2019-05-15T03:33:25.277Z,56.19
2019-05-15T03:38:09.635Z,55.9
2019-05-15T03:43:09.507Z,55.66
2019-05-15T03:48:09.782Z,56.83
2019-05-15T03:53:10.919Z,57.0
2019-05-15T03:58:21.973Z,58.04
2019-05-15T04:03:20.619Z,57.78
2019-05-15T04:08:19.891Z,58.03
2019-05-15T04:13:20.121Z,56.24
2019-05-15T04:18:20.247Z,56.41
2019-05-15T04:23:19.390Z,56.99
2019-05-15T04:28:19.581Z,56.6
2019-05-15T04:33:20.257Z,56.64
2019-05-15T04:38:19.974Z,56.75
2019-05-15T04:43:19.846Z,59.14
2019-05-15T04:48:20.421Z,57.5
2019-05-15T04:53:22.874Z,58.23
2019-05-15T04:58:22.918Z,58.84
2019-05-15T05:03:23.164Z,59.61
2019-05-15T05:08:23.208Z,59.45
2019-05-15T05:13:23.246Z,59.66
2019-05-15T05:18:23.407Z,60.76
2019-05-15T05:23:23.406Z,61.42
2019-05-15T05:28:23.522Z,61.37
2019-05-15T05:33:23.682Z,61.51
2019-05-15T05:38:23.654Z,60.9
2019-05-15T05:43:23.774Z,62.57
2019-05-15T05:48:30.042Z,63.5
2019-05-15T05:53:31.995Z,61.66
2019-05-15T05:58:32.142Z,61.38
2019-05-15T06:03:32.258Z,59.7
2019-05-15T06:08:32.268Z,59.44
2019-05-15T06:13:32.451Z,57.32
2019-05-15T06:18:32.643Z,55.12
2019-05-15T06:23:36.338Z,54.06
2019-05-15T06:28:32.708Z,53.43
2019-05-15T06:33:32.899Z,52.21
2019-05-15T06:38:33.163Z,49.54
2019-05-15T06:43:39.426Z,50.59
2019-05-15T06:48:39.407Z,50.51
2019-05-15T06:53:39.414Z,51.61
2019-05-15T06:58:39.527Z,49.75
2019-05-15T07:03:39.886Z,49.62
2019-05-15T07:08:39.739Z,48.79
2019-05-15T07:13:39.744Z,49.24
2019-05-15T07:18:39.983Z,49.58
2019-05-15T07:23:40.658Z,48.03
2019-05-15T07:28:40.603Z,48.12
2019-05-15T07:33:44.153Z,47.84
2019-05-15T07:38:45.032Z,46.55
2019-05-15T07:43:45.086Z,46.7
2019-05-15T07:48:45.399Z,47.33
2019-05-15T07:53:48.290Z,45.67
2019-05-15T07:58:52.845Z,45.64
2019-05-15T08:04:14.484Z,44.4
2019-05-15T08:08:48.874Z,43.95
2019-05-15T08:13:48.520Z,43.54
2019-05-15T08:18:48.679Z,44.17
2019-05-15T08:23:48.693Z,44.15
2019-05-15T08:28:48.939Z,42.69
2019-05-15T08:33:52.747Z,42.78
2019-05-15T08:38:52.777Z,41.43
2019-05-15T08:43:52.944Z,39.38
2019-05-15T08:48:53.762Z,41.0
2019-05-15T08:53:53.945Z,39.01
2019-05-15T08:58:53.865Z,38.39
2019-05-15T09:03:54.050Z,40.96
2019-05-15T09:08:54.014Z,39.9
2019-05-15T09:13:54.766Z,37.46
2019-05-15T09:18:54.162Z,37.06
2019-05-15T09:23:54.246Z,37.82
2019-05-15T09:28:58.902Z,38.29
2019-05-15T09:33:59.034Z,35.89
2019-05-15T09:38:58.973Z,35.25
2019-05-15T09:43:58.760Z,36.38
2019-05-15T09:48:59.651Z,36.22
2019-05-15T09:54:00.015Z,36.75
2019-05-15T09:59:00.018Z,36.56
2019-05-15T10:04:00.057Z,36.3
2019-05-15T10:09:00.180Z,36.02
2019-05-15T10:14:00.194Z,36.83
2019-05-15T10:19:00.311Z,34.9
2019-05-15T10:24:09.690Z,33.54
2019-05-15T10:29:09.398Z,33.4
2019-05-15T10:34:09.452Z,34.52
2019-05-15T10:39:08.798Z,33.21
2019-05-15T10:44:09.540Z,34.57
2019-05-15T10:49:08.987Z,35.16
2019-05-15T10:54:08.851Z,33.76
2019-05-15T10:59:08.830Z,35.42
2019-05-15T11:04:09.632Z,34.06
2019-05-15T11:09:08.820Z,32.69
2019-05-15T11:14:09.502Z,32.89
2019-05-15T11:19:12.268Z,34.82
2019-05-15T11:24:12.290Z,35.32
2019-05-15T11:29:12.478Z,34.1
2019-05-15T11:34:13.453Z,34.42
2019-05-15T11:39:13.492Z,33.12
2019-05-15T11:44:13.612Z,34.34
2019-05-15T11:49:13.617Z,33.79
2019-05-15T11:54:13.737Z,31.57
2019-05-15T11:59:13.774Z,30.02
2019-05-15T12:04:33.223Z,32.33
2019-05-15T12:09:14.139Z,34.0
2019-05-15T12:14:20.575Z,31.98
2019-05-15T12:19:20.334Z,30.1
2019-05-15T12:24:20.375Z,30.64
2019-05-15T12:29:20.425Z,30.26
2019-05-15T12:34:20.805Z,31.22
2019-05-15T12:39:22.454Z,30.44
2019-05-15T13:04:21.930Z,32.72
2019-05-15T13:09:28.214Z,32.15
2019-05-15T13:14:28.843Z,33.68
2019-05-15T13:19:28.873Z,31.92
2019-05-15T13:24:28.816Z,32.37
2019-05-15T13:29:29.355Z,33.06
2019-05-15T13:34:31.157Z,32.39
2019-05-15T13:39:28.852Z,31.72
2019-05-15T13:44:29.682Z,30.94
2019-05-15T13:49:28.799Z,34.15
2019-05-15T13:54:29.049Z,30.55
2019-05-15T13:59:29.095Z,31.04
2019-05-15T14:04:39.049Z,32.17
2019-05-15T14:09:44.998Z,32.14
2019-05-15T14:14:39.705Z,31.32
2019-05-15T14:19:39.804Z,31.7
2019-05-15T14:24:39.989Z,32.7
2019-05-15T14:29:39.992Z,33.27
2019-05-15T14:34:40.185Z,32.08
2019-05-15T14:39:40.161Z,33.9
2019-05-15T14:44:40.527Z,33.25
2019-05-15T14:49:45.992Z,32.94
2019-05-15T14:54:40.504Z,32.44
2019-05-15T14:59:49.026Z,33.82
2019-05-15T15:04:48.906Z,33.47
2019-05-15T15:09:48.122Z,33.01
2019-05-15T15:14:48.929Z,32.87
2019-05-15T15:19:52.962Z,34.18
2019-05-15T15:24:48.750Z,33.54
2019-05-15T15:29:48.621Z,33.3
2019-05-15T15:34:48.285Z,33.7
2019-05-15T15:39:48.540Z,33.6
2019-05-15T15:44:49.189Z,34.01
2019-05-15T15:49:48.258Z,36.23
2019-05-15T15:54:53.910Z,33.11
2019-05-15T15:59:53.949Z,34.41
2019-05-15T16:04:53.986Z,33.27
2019-05-15T16:09:54.178Z,34.68
2019-05-15T16:14:58.147Z,34.7
2019-05-15T16:19:55.931Z,34.68
2019-05-15T16:25:02.602Z,35.93
2019-05-15T16:29:58.743Z,35.38
2019-05-15T16:34:59.174Z,35.89
2019-05-15T16:40:00.177Z,35.43
2019-05-15T16:44:58.805Z,34.8
2019-05-15T16:50:03.847Z,34.87
2019-05-15T16:55:03.967Z,36.59
2019-05-15T17:00:04.167Z,34.63
2019-05-15T17:05:04.044Z,36.81
2019-05-15T17:10:04.085Z,36.04
2019-05-15T17:15:04.343Z,34.93
2019-05-15T17:20:04.487Z,34.62
2019-05-15T17:25:04.611Z,35.38
2019-05-15T17:30:04.647Z,38.01
2019-05-15T17:35:04.767Z,38.51
2019-05-15T17:40:04.785Z,38.15
2019-05-15T17:45:11.270Z,39.23
2019-05-15T17:50:11.166Z,39.31
2019-05-15T17:55:11.290Z,36.07
2019-05-15T18:00:13.157Z,40.14
2019-05-15T18:05:11.465Z,39.33
2019-05-15T18:10:11.373Z,39.49
2019-05-15T18:15:11.775Z,34.67
2019-05-15T18:20:11.841Z,34.18
2019-05-15T18:25:11.876Z,33.25
2019-05-15T18:30:11.932Z,34.06
2019-05-15T18:35:12.047Z,33.62
2019-05-15T18:40:19.388Z,34.19
2019-05-15T18:45:18.665Z,34.1
2019-05-15T18:50:18.565Z,34.37
2019-05-15T18:55:19.936Z,33.96
2019-05-15T19:00:20.368Z,33.92
2019-05-15T19:05:20.483Z,35.72
2019-05-15T19:10:20.526Z,34.08
2019-05-15T19:15:20.905Z,33.88
2019-05-15T19:20:21.090Z,34.6
2019-05-15T19:25:21.110Z,34.36
2019-05-15T19:30:21.157Z,34.62
2019-05-15T19:35:28.406Z,34.68
2019-05-15T19:40:28.681Z,34.94
2019-05-15T19:45:28.576Z,35.3
2019-05-15T19:50:29.117Z,36.06
2019-05-15T19:55:27.755Z,35.56
2019-05-15T20:00:28.915Z,35.55
2019-05-15T20:05:29.398Z,35.72
2019-05-15T20:10:29.659Z,35.94
2019-05-15T20:15:29.041Z,36.23
2019-05-15T20:20:28.881Z,36.47
2019-05-15T20:25:28.701Z,37.58
2019-05-15T20:30:35.046Z,38.15
2019-05-15T20:35:35.078Z,39.58
2019-05-15T20:40:35.280Z,41.38
2019-05-15T20:45:35.258Z,42.27
2019-05-15T20:50:35.430Z,42.64
2019-05-15T20:55:37.922Z,43.2
2019-05-15T21:00:35.592Z,44.15
2019-05-15T21:05:35.791Z,43.61
2019-05-15T21:10:40.299Z,44.04
2019-05-15T21:15:35.858Z,43.54
2019-05-15T21:20:38.188Z,44.17
2019-05-15T21:25:42.227Z,44.06
2019-05-15T21:30:42.270Z,45.61
2019-05-15T21:35:42.368Z,45.08
2019-05-15T21:40:42.568Z,46.3
2019-05-15T21:45:42.609Z,46.2
2019-05-15T21:50:43.199Z,47.05
2019-05-15T21:55:42.888Z,46.65
2019-05-15T22:00:43.696Z,47.27
2019-05-15T22:05:43.732Z,47.0
2019-05-15T22:10:43.859Z,47.93
2019-05-15T22:15:43.981Z,47.42
2019-05-15T22:20:52.898Z,48.14
2019-05-15T22:25:52.513Z,48.71
2019-05-15T22:30:52.779Z,48.31
2019-05-15T22:35:54.171Z,48.26
2019-05-15T22:40:54.159Z,48.66
2019-05-15T22:45:54.278Z,48.75
2019-05-15T22:50:54.291Z,49.49
2019-05-15T22:55:54.340Z,49.71
2019-05-15T23:00:54.459Z,50.32
2019-05-15T23:05:54.498Z,49.18
2019-05-15T23:10:54.618Z,49.65
2019-05-15T23:16:00.919Z,50.24
2019-05-15T23:21:00.943Z,51.06
2019-05-15T23:26:01.112Z,51.36
2019-05-15T23:31:02.029Z,50.86
2019-05-15T23:36:02.015Z,50.47
2019-05-15T23:41:02.054Z,50.68
2019-05-15T23:46:02.463Z,50.5
2019-05-15T23:51:02.217Z,51.69
2019-05-15T23:56:02.362Z,51.35
